Time;durP1;ratioP1;P1;durP2;ratioP2;P2;SDS_P1;SDS_P2;PMS_P1;PMS_P2;Temp;Humidity;BMP_temperature;BMP_pressure;BME280_temperature;BME280_humidity;BME280_pressure;Samples;Min_cycle;Max_cycle;Signal;HPM_P1;HPM_P2
2023/05/16 00:00:45;;;;;;;4.27;3.37;;;11.90;99.90;;;;;;5109883;28;20651;-69
2023/05/16 00:03:11;;;;;;;4.13;3.80;;;11.90;99.90;;;;;;5109865;28;20634;-69
2023/05/16 00:05:40;;;;;;;4.70;4.30;;;11.90;99.90;;;;;;5110642;28;20695;-70
2023/05/16 00:08:07;;;;;;;5.40;4.53;;;11.90;99.90;;;;;;5110364;28;20683;-70
2023/05/16 00:10:33;;;;;;;5.83;3.53;;;11.90;99.90;;;;;;5109435;27;20673;-69
2023/05/16 00:13:00;;;;;;;4.50;3.97;;;11.90;99.90;;;;;;5110132;28;20637;-69
2023/05/16 00:15:28;;;;;;;4.07;3.67;;;11.80;99.90;;;;;;5110046;28;21050;-69
2023/05/16 00:17:57;;;;;;;6.30;4.70;;;11.80;99.90;;;;;;5109717;28;20626;-69
2023/05/16 00:20:24;;;;;;;5.83;4.40;;;11.80;99.90;;;;;;5109402;28;21094;-69
2023/05/16 00:22:52;;;;;;;6.13;4.60;;;11.70;99.90;;;;;;5110329;28;20632;-69
2023/05/16 00:25:19;;;;;;;7.10;5.17;;;11.70;99.90;;;;;;5109781;28;20628;-69
2023/05/16 00:27:46;;;;;;;6.53;4.27;;;11.70;99.90;;;;;;5109139;28;21150;-70
2023/05/16 00:30:14;;;;;;;6.53;3.97;;;11.80;99.90;;;;;;5108746;28;20890;-69
2023/05/16 00:32:40;;;;;;;7.73;4.83;;;11.80;99.90;;;;;;5109779;28;20626;-69
2023/05/16 00:35:09;;;;;;;5.33;4.57;;;11.90;99.90;;;;;;5109440;28;20634;-69
2023/05/16 00:37:37;;;;;;;7.93;4.30;;;11.80;99.90;;;;;;5109845;28;20613;-69
2023/05/16 00:40:06;;;;;;;11.20;5.83;;;11.90;99.90;;;;;;5108973;28;20626;-69
2023/05/16 00:42:33;;;;;;;8.50;5.97;;;11.80;99.90;;;;;;5109472;28;20630;-69
2023/05/16 00:45:01;;;;;;;5.00;4.57;;;11.80;99.90;;;;;;5109165;28;21249;-69
2023/05/16 00:47:28;;;;;;;6.93;4.80;;;11.90;99.90;;;;;;5109398;28;20657;-70
2023/05/16 00:49:55;;;;;;;7.87;6.60;;;11.90;99.90;;;;;;5107524;28;20658;-69
2023/05/16 00:52:22;;;;;;;6.83;5.73;;;11.80;99.90;;;;;;5109208;28;20651;-69
2023/05/16 00:54:49;;;;;;;7.13;5.40;;;11.70;99.90;;;;;;5109506;28;20624;-69
2023/05/16 00:57:17;;;;;;;8.40;7.07;;;11.70;99.90;;;;;;5109149;28;21161;-69
2023/05/16 00:59:45;;;;;;;12.27;5.87;;;11.70;99.90;;;;;;5108950;28;20622;-69
2023/05/16 01:02:12;;;;;;;9.37;6.73;;;11.70;99.90;;;;;;5108265;28;20697;-70
2023/05/16 01:04:40;;;;;;;11.50;6.57;;;11.70;99.90;;;;;;5100061;28;20626;-69
2023/05/16 01:07:07;;;;;;;8.67;6.40;;;11.60;99.90;;;;;;5108938;27;20955;-70
2023/05/16 01:09:34;;;;;;;8.97;6.43;;;11.60;99.90;;;;;;5108396;28;21344;-70
2023/05/16 01:12:14;;;;;;;9.83;7.60;;;11.60;99.90;;;;;;5108520;28;20642;-71
2023/05/16 01:14:50;;;;;;;9.40;6.70;;;11.60;99.90;;;;;;5109385;28;20939;-70
2023/05/16 01:17:27;;;;;;;7.83;6.33;;;11.50;99.90;;;;;;5108773;28;21205;-70
2023/05/16 01:20:07;;;;;;;10.53;6.70;;;11.50;99.90;;;;;;5099906;28;21197;-70
2023/05/16 01:22:52;;;;;;;8.50;5.50;;;11.40;99.90;;;;;;5108413;28;20617;-72
2023/05/16 01:25:36;;;;;;;11.00;6.77;;;11.40;99.90;;;;;;5103326;28;20699;-70
2023/05/16 01:28:07;;;;;;;7.77;5.90;;;11.40;99.90;;;;;;5100897;28;21073;-70
2023/05/16 01:30:38;;;;;;;10.63;7.90;;;11.40;99.90;;;;;;5107477;28;20670;-71
2023/05/16 01:33:05;;;;;;;12.87;6.90;;;11.40;99.90;;;;;;5108228;28;21178;-70
2023/05/16 01:35:33;;;;;;;15.70;9.93;;;11.30;99.90;;;;;;5108648;28;20642;-70
2023/05/16 01:38:11;;;;;;;13.18;8.13;;;11.30;99.90;;;;;;5107853;28;21120;-70
2023/05/16 01:40:45;;;;;;;13.33;8.53;;;11.30;99.90;;;;;;5107745;28;20226;-70
2023/05/16 01:43:20;;;;;;;14.20;7.63;;;11.30;99.90;;;;;;5107611;28;20621;-70
2023/05/16 01:45:55;;;;;;;11.57;7.73;;;11.20;99.90;;;;;;5108663;28;21254;-70
2023/05/16 01:48:26;;;;;;;9.97;7.40;;;11.20;99.90;;;;;;5108564;28;20629;-70
2023/05/16 01:50:56;;;;;;;11.77;7.60;;;11.20;99.90;;;;;;5106338;28;20674;-70
2023/05/16 01:53:29;;;;;;;11.53;7.87;;;11.20;99.90;;;;;;5108374;28;20613;-70
2023/05/16 01:56:00;;;;;;;12.90;8.23;;;11.10;99.90;;;;;;5108178;28;20652;-70
2023/05/16 01:58:32;;;;;;;11.77;8.30;;;11.00;99.90;;;;;;5106693;28;20622;-70
2023/05/16 02:01:02;;;;;;;10.60;7.37;;;11.00;99.90;;;;;;5107939;28;20707;-70
2023/05/16 02:03:29;;;;;;;12.13;7.60;;;11.00;99.90;;;;;;5108107;28;20617;-70
2023/05/16 02:05:57;;;;;;;8.00;6.57;;;11.00;99.90;;;;;;5108212;28;20664;-70
2023/05/16 02:08:25;;;;;;;13.57;8.17;;;10.90;99.90;;;;;;5108218;28;20712;-70
2023/05/16 02:10:54;;;;;;;18.93;9.70;;;10.80;99.90;;;;;;5107507;28;20665;-71
2023/05/16 02:13:21;;;;;;;11.90;7.37;;;10.80;99.90;;;;;;5108217;28;20978;-70
2023/05/16 02:15:50;;;;;;;12.10;7.80;;;10.80;99.90;;;;;;5108044;28;21002;-70
2023/05/16 02:18:17;;;;;;;14.37;9.17;;;10.80;99.90;;;;;;5108158;28;20661;-70
2023/05/16 02:20:44;;;;;;;13.33;8.90;;;10.80;99.90;;;;;;5107081;28;20643;-70
2023/05/16 02:23:11;;;;;;;12.37;8.23;;;10.80;99.90;;;;;;5108361;28;20618;-70
2023/05/16 02:25:38;;;;;;;16.03;9.73;;;10.80;99.90;;;;;;5108307;28;21035;-70
2023/05/16 02:28:05;;;;;;;14.07;10.03;;;10.80;99.90;;;;;;5108058;28;20616;-72
2023/05/16 02:30:33;;;;;;;10.53;7.13;;;10.80;99.90;;;;;;5106972;28;20752;-70
2023/05/16 02:33:01;;;;;;;13.10;8.80;;;10.80;99.90;;;;;;5107835;28;20623;-70
2023/05/16 02:35:29;;;;;;;14.10;8.90;;;10.80;99.90;;;;;;5107837;28;20648;-70
2023/05/16 02:37:56;;;;;;;14.13;8.17;;;10.90;99.90;;;;;;5107947;28;20704;-70
2023/05/16 02:40:24;;;;;;;9.70;6.23;;;10.90;99.90;;;;;;5107381;28;20644;-71
2023/05/16 02:42:52;;;;;;;11.13;7.33;;;10.90;99.90;;;;;;5107460;28;20622;-70
2023/05/16 02:45:20;;;;;;;13.67;7.83;;;11.00;99.90;;;;;;5099432;28;21006;-70
2023/05/16 02:47:47;;;;;;;13.70;7.57;;;11.00;99.90;;;;;;5107294;28;20614;-70
2023/05/16 02:50:16;;;;;;;12.00;8.00;;;11.00;99.90;;;;;;5107625;28;20649;-70
2023/05/16 02:52:43;;;;;;;15.43;8.40;;;11.00;99.90;;;;;;5112124;28;20659;-70
2023/05/16 02:55:11;;;;;;;14.60;7.83;;;11.10;99.90;;;;;;5111514;28;20706;-70
2023/05/16 02:57:39;;;;;;;12.70;8.80;;;11.10;99.90;;;;;;5112145;28;20624;-70
2023/05/16 03:00:10;;;;;;;13.43;8.57;;;11.00;99.90;;;;;;5111308;28;20658;-70
2023/05/16 03:02:37;;;;;;;12.70;8.27;;;11.00;99.90;;;;;;5103291;28;20612;-70
2023/05/16 03:05:05;;;;;;;21.07;8.23;;;11.10;99.90;;;;;;5111540;28;20616;-70
2023/05/16 03:07:34;;;;;;;21.70;8.70;;;11.10;99.90;;;;;;5111515;28;20729;-70
2023/05/16 03:10:01;;;;;;;10.10;7.83;;;11.10;99.90;;;;;;5111264;28;20652;-70
2023/05/16 03:12:28;;;;;;;15.80;9.87;;;11.00;99.90;;;;;;5111640;28;20629;-70
2023/05/16 03:14:55;;;;;;;12.03;8.53;;;11.10;99.90;;;;;;5111206;28;21250;-70
2023/05/16 03:17:22;;;;;;;12.13;7.93;;;11.10;99.90;;;;;;5111317;28;20650;-70
2023/05/16 03:19:49;;;;;;;9.33;6.90;;;11.00;99.90;;;;;;5110642;28;20628;-70
2023/05/16 03:22:17;;;;;;;15.43;9.77;;;10.90;99.90;;;;;;5111253;28;20645;-70
2023/05/16 03:24:45;;;;;;;11.80;8.90;;;10.80;99.90;;;;;;5111379;28;20692;-72
2023/05/16 03:27:12;;;;;;;11.07;7.07;;;10.80;99.90;;;;;;5111379;28;20700;-71
2023/05/16 03:29:39;;;;;;;10.40;8.93;;;10.80;99.90;;;;;;5110068;28;20651;-70
2023/05/16 03:32:06;;;;;;;10.43;8.00;;;10.80;99.90;;;;;;5102491;28;21022;-70
2023/05/16 03:34:33;;;;;;;16.97;10.17;;;10.80;99.90;;;;;;5111372;28;20621;-70
2023/05/16 03:37:00;;;;;;;12.23;8.90;;;10.70;99.90;;;;;;5110871;27;20640;-70
2023/05/16 03:39:27;;;;;;;20.70;10.57;;;10.60;99.90;;;;;;5110388;28;20735;-70
2023/05/16 03:41:56;;;;;;;12.90;8.63;;;10.60;99.90;;;;;;5110779;28;21015;-71
2023/05/16 03:44:23;;;;;;;13.53;9.87;;;10.60;99.90;;;;;;5110954;28;21301;-70
2023/05/16 03:46:51;;;;;;;18.73;10.23;;;10.50;99.90;;;;;;5110953;27;20621;-70
2023/05/16 03:49:19;;;;;;;12.83;8.77;;;10.50;99.90;;;;;;5109341;27;20633;-70
2023/05/16 03:51:46;;;;;;;15.93;9.80;;;10.50;99.90;;;;;;5110654;28;20976;-70
2023/05/16 03:54:14;;;;;;;13.73;9.33;;;10.40;99.90;;;;;;5110547;28;20645;-70
2023/05/16 03:56:40;;;;;;;10.87;8.50;;;10.40;99.90;;;;;;5110426;27;20663;-70
2023/05/16 03:59:08;;;;;;;13.60;9.67;;;10.50;99.90;;;;;;5110688;28;20624;-70
2023/05/16 04:01:35;;;;;;;17.13;9.83;;;10.40;99.90;;;;;;5100088;28;20644;-71
2023/05/16 04:04:02;;;;;;;17.70;10.00;;;10.40;99.90;;;;;;5110636;28;21188;-70
2023/05/16 04:06:29;;;;;;;12.27;9.50;;;10.50;99.90;;;;;;5110341;28;20652;-70
2023/05/16 04:08:56;;;;;;;13.70;7.43;;;10.50;99.90;;;;;;5109827;28;21241;-70
2023/05/16 04:11:23;;;;;;;16.30;10.47;;;10.50;99.90;;;;;;5109796;28;21242;-70
2023/05/16 04:13:50;;;;;;;18.17;10.40;;;10.60;99.90;;;;;;5110144;27;21227;-70
2023/05/16 04:16:18;;;;;;;16.43;9.50;;;10.60;99.90;;;;;;5110153;28;20650;-71
2023/05/16 04:18:45;;;;;;;16.10;10.27;;;10.60;99.90;;;;;;5109930;28;20625;-70
2023/05/16 04:21:14;;;;;;;14.37;8.93;;;10.70;99.90;;;;;;5109656;27;20655;-70
2023/05/16 04:23:40;;;;;;;13.00;8.57;;;10.80;99.90;;;;;;5109711;28;20628;-70
2023/05/16 04:26:07;;;;;;;18.70;7.70;;;10.70;99.90;;;;;;5110178;28;20664;-70
2023/05/16 04:28:34;;;;;;;18.13;10.97;;;10.70;99.90;;;;;;5110109;28;21144;-70
2023/05/16 04:31:01;;;;;;;16.07;11.00;;;10.70;99.90;;;;;;5109105;28;20665;-70
2023/05/16 04:33:30;;;;;;;14.50;8.50;;;10.70;99.90;;;;;;5109880;27;20667;-70
2023/05/16 04:35:58;;;;;;;18.37;9.80;;;10.70;99.90;;;;;;5109615;28;20651;-70
2023/05/16 04:38:24;;;;;;;15.10;9.47;;;10.80;99.90;;;;;;5109610;28;20640;-70
2023/05/16 04:40:51;;;;;;;17.17;10.30;;;10.80;99.90;;;;;;5108718;28;21232;-70
2023/05/16 04:43:18;;;;;;;18.70;9.93;;;10.70;99.90;;;;;;5110108;28;20624;-70
2023/05/16 04:45:46;;;;;;;16.90;10.00;;;10.80;99.90;;;;;;5109590;28;21047;-70
2023/05/16 04:48:13;;;;;;;11.53;8.40;;;10.80;99.90;;;;;;5109530;28;20624;-70
2023/05/16 04:50:41;;;;;;;11.43;8.13;;;10.80;99.90;;;;;;5107608;28;20661;-70
2023/05/16 04:53:08;;;;;;;20.50;10.10;;;10.90;99.90;;;;;;5109834;28;20622;-70
2023/05/16 04:55:34;;;;;;;17.37;10.23;;;10.90;99.90;;;;;;5109380;28;20676;-70
2023/05/16 04:58:01;;;;;;;23.20;11.13;;;11.00;99.90;;;;;;5109481;28;20642;-70
2023/05/16 05:00:28;;;;;;;15.07;9.73;;;11.10;99.90;;;;;;5108610;28;21080;-70
2023/05/16 05:02:55;;;;;;;17.93;10.27;;;11.10;99.90;;;;;;5109079;28;20619;-71
2023/05/16 05:05:22;;;;;;;12.50;8.33;;;11.00;99.90;;;;;;5108788;28;20629;-70
2023/05/16 05:07:50;;;;;;;16.37;10.97;;;11.00;99.90;;;;;;5109194;28;20629;-71
2023/05/16 05:10:17;;;;;;;15.00;10.20;;;11.00;99.90;;;;;;5108572;28;21006;-70
2023/05/16 05:12:44;;;;;;;13.37;9.93;;;11.10;99.90;;;;;;5108929;28;20656;-70
2023/05/16 05:15:10;;;;;;;15.43;9.03;;;11.20;99.90;;;;;;5109164;28;20617;-70
2023/05/16 05:17:37;;;;;;;15.20;10.50;;;11.20;99.90;;;;;;5108623;28;20618;-70
2023/05/16 05:20:07;;;;;;;19.17;8.97;;;11.20;99.90;;;;;;5108198;28;20620;-70
2023/05/16 05:22:34;;;;;;;13.13;8.10;;;11.10;99.90;;;;;;5109064;28;20631;-70
2023/05/16 05:25:02;;;;;;;17.67;8.60;;;11.10;99.90;;;;;;5108983;28;20680;-70
2023/05/16 05:27:30;;;;;;;22.40;10.43;;;11.10;99.90;;;;;;5108916;28;20647;-70
2023/05/16 05:29:57;;;;;;;12.20;8.97;;;11.00;99.90;;;;;;5108132;28;20686;-70
2023/05/16 05:32:24;;;;;;;12.77;8.97;;;11.00;99.90;;;;;;5108145;28;20660;-70
2023/05/16 05:34:51;;;;;;;15.03;9.60;;;11.00;99.90;;;;;;5108697;28;20625;-70
2023/05/16 05:37:18;;;;;;;20.20;11.27;;;11.00;99.90;;;;;;5108716;28;20652;-70
2023/05/16 05:39:45;;;;;;;14.03;8.57;;;11.00;99.90;;;;;;5107889;28;20637;-70
2023/05/16 05:42:13;;;;;;;15.57;10.80;;;11.20;99.90;;;;;;5108884;28;20637;-70
2023/05/16 05:44:39;;;;;;;18.30;10.03;;;11.30;99.90;;;;;;5108509;28;20617;-70
2023/05/16 05:47:07;;;;;;;17.27;9.43;;;11.30;99.90;;;;;;5108172;28;20653;-70
2023/05/16 05:49:34;;;;;;;15.73;9.37;;;11.20;99.90;;;;;;5106782;28;20629;-70
2023/05/16 05:52:01;;;;;;;14.83;8.83;;;11.20;99.90;;;;;;5108797;28;20698;-70
2023/05/16 05:54:30;;;;;;;17.97;9.53;;;11.30;99.90;;;;;;5100499;28;20629;-70
2023/05/16 05:56:57;;;;;;;17.93;10.30;;;11.20;99.90;;;;;;5108304;28;20652;-71
2023/05/16 05:59:26;;;;;;;11.10;7.77;;;11.40;99.90;;;;;;5107882;28;20724;-70
2023/05/16 06:01:53;;;;;;;15.07;8.73;;;11.40;99.90;;;;;;5108422;28;20656;-70
2023/05/16 06:04:20;;;;;;;15.10;9.57;;;11.50;99.90;;;;;;5107933;28;21189;-70
2023/05/16 06:06:47;;;;;;;12.20;8.17;;;11.50;99.90;;;;;;5108161;28;20653;-70
2023/05/16 06:09:14;;;;;;;17.20;9.70;;;11.50;99.90;;;;;;5108322;28;20633;-70
2023/05/16 06:11:41;;;;;;;15.53;9.17;;;11.40;99.90;;;;;;5107649;28;20718;-70
2023/05/16 06:14:08;;;;;;;17.43;11.70;;;11.50;99.90;;;;;;5108088;28;21045;-70
2023/05/16 06:16:36;;;;;;;13.50;9.17;;;11.70;99.90;;;;;;5108212;28;20650;-70
2023/05/16 06:19:02;;;;;;;13.53;9.20;;;11.60;99.90;;;;;;5108072;28;20658;-71
2023/05/16 06:21:29;;;;;;;11.70;8.57;;;11.70;99.90;;;;;;5107389;28;20649;-70
2023/05/16 06:23:56;;;;;;;14.17;9.90;;;11.60;99.90;;;;;;5099882;28;20613;-70
2023/05/16 06:26:23;;;;;;;10.30;8.13;;;11.50;99.90;;;;;;5112048;28;20653;-70
2023/05/16 06:28:50;;;;;;;14.70;10.47;;;11.60;99.90;;;;;;5112322;28;20629;-70
2023/05/16 06:31:17;;;;;;;19.70;8.40;;;11.60;99.90;;;;;;5111540;28;21018;-70
2023/05/16 06:33:45;;;;;;;14.60;9.40;;;11.70;99.90;;;;;;5112508;28;21067;-70
2023/05/16 06:36:12;;;;;;;11.07;8.13;;;11.50;99.90;;;;;;5112259;28;20741;-70
2023/05/16 06:38:38;;;;;;;12.93;10.57;;;11.50;99.90;;;;;;5111993;28;20624;-70
2023/05/16 06:41:05;;;;;;;11.07;9.87;;;11.50;99.90;;;;;;5110784;28;20636;-70
2023/05/16 06:43:32;;;;;;;12.67;9.20;;;11.50;99.90;;;;;;5112038;28;21200;-71
2023/05/16 06:45:59;;;;;;;10.17;8.13;;;11.50;99.90;;;;;;5112370;28;20998;-70
2023/05/16 06:48:25;;;;;;;15.17;9.10;;;11.50;99.90;;;;;;5112016;28;20619;-70
2023/05/16 06:50:53;;;;;;;15.30;10.17;;;11.50;99.90;;;;;;5110064;27;20678;-70
2023/05/16 06:53:20;;;;;;;17.33;10.10;;;11.60;99.90;;;;;;5112012;28;20627;-72
2023/05/16 06:55:47;;;;;;;16.17;9.80;;;11.60;99.90;;;;;;5111272;28;20654;-70
2023/05/16 06:58:14;;;;;;;12.87;8.40;;;11.70;99.90;;;;;;5111741;28;20626;-70
2023/05/16 07:00:42;;;;;;;12.17;9.47;;;11.70;99.90;;;;;;5111366;28;20748;-70
2023/05/16 07:03:09;;;;;;;15.23;8.50;;;11.80;99.90;;;;;;5111976;28;20675;-70
2023/05/16 07:05:36;;;;;;;12.10;8.50;;;11.90;99.90;;;;;;5102729;28;20657;-70
2023/05/16 07:08:05;;;;;;;11.07;9.57;;;11.80;99.90;;;;;;5111548;28;21102;-70
2023/05/16 07:10:32;;;;;;;11.50;6.93;;;11.90;99.90;;;;;;5110398;28;21030;-69
2023/05/16 07:13:00;;;;;;;9.70;7.43;;;11.70;99.90;;;;;;5111691;28;20627;-70
2023/05/16 07:15:27;;;;;;;13.07;5.97;;;11.60;99.90;;;;;;5111319;28;20655;-69
2023/05/16 07:17:53;;;;;;;9.30;6.07;;;11.60;99.90;;;;;;5111567;28;20631;-69
2023/05/16 07:20:20;;;;;;;15.60;7.50;;;11.70;99.90;;;;;;5110174;28;20625;-69
2023/05/16 07:22:47;;;;;;;10.67;6.60;;;11.80;99.90;;;;;;5111152;28;21081;-69
2023/05/16 07:25:16;;;;;;;10.67;6.47;;;11.80;99.90;;;;;;5111575;28;20617;-69
2023/05/16 07:27:43;;;;;;;7.13;6.00;;;11.90;99.90;;;;;;5111319;27;20625;-69
2023/05/16 07:30:12;;;;;;;7.97;7.13;;;11.80;99.90;;;;;;5110479;28;21249;-69
2023/05/16 07:32:39;;;;;;;11.27;6.80;;;11.80;99.90;;;;;;5111170;28;20650;-69
2023/05/16 07:35:07;;;;;;;11.97;7.37;;;12.00;99.90;;;;;;5110628;28;20613;-69
2023/05/16 07:37:33;;;;;;;7.30;5.90;;;11.90;99.90;;;;;;5110598;27;20622;-69
2023/05/16 07:40:00;;;;;;;9.50;7.13;;;11.90;99.90;;;;;;5110655;28;20983;-69
2023/05/16 07:42:28;;;;;;;7.90;5.43;;;11.80;99.90;;;;;;5110383;28;20655;-69
2023/05/16 07:44:55;;;;;;;7.97;5.73;;;11.70;99.90;;;;;;5111013;28;21196;-69
2023/05/16 07:47:22;;;;;;;10.57;5.50;;;11.70;99.90;;;;;;5110689;28;20654;-69
2023/05/16 07:49:49;;;;;;;7.93;6.33;;;11.80;99.90;;;;;;5108840;28;20725;-69
2023/05/16 07:52:16;;;;;;;5.37;4.87;;;11.90;99.90;;;;;;5110501;28;20672;-69
2023/05/16 07:54:43;;;;;;;12.83;6.47;;;11.90;99.90;;;;;;5111237;27;20628;-69
2023/05/16 07:57:10;;;;;;;5.37;4.40;;;12.00;99.90;;;;;;5110641;28;20649;-70
2023/05/16 07:59:38;;;;;;;6.10;5.03;;;12.00;99.90;;;;;;5110337;28;20715;-69
2023/05/16 08:02:05;;;;;;;6.63;4.37;;;12.00;99.90;;;;;;5110424;28;20642;-69
2023/05/16 08:04:32;;;;;;;4.80;4.43;;;12.00;99.90;;;;;;5110219;28;20617;-69
2023/05/16 08:06:58;;;;;;;9.83;4.70;;;11.90;99.90;;;;;;5110438;28;20653;-69
2023/05/16 08:09:25;;;;;;;9.37;6.30;;;12.00;99.90;;;;;;5109883;27;20624;-70
2023/05/16 08:11:52;;;;;;;9.70;6.00;;;11.90;99.90;;;;;;5110096;28;20718;-69
2023/05/16 08:14:19;;;;;;;6.43;4.90;;;11.90;99.90;;;;;;5110281;28;20632;-69
2023/05/16 08:16:47;;;;;;;6.03;5.43;;;12.00;99.90;;;;;;5101619;28;20648;-69
2023/05/16 08:19:14;;;;;;;7.77;4.37;;;12.00;99.90;;;;;;5110373;28;21166;-70
2023/05/16 08:21:41;;;;;;;9.17;5.63;;;11.80;99.90;;;;;;5109262;28;21238;-70
2023/05/16 08:24:09;;;;;;;6.97;4.70;;;11.90;99.90;;;;;;5110134;28;20627;-69
2023/05/16 08:26:37;;;;;;;8.00;6.10;;;12.10;99.90;;;;;;5110027;28;20656;-69
2023/05/16 08:29:04;;;;;;;6.70;5.47;;;12.30;99.90;;;;;;5109816;27;20968;-69
2023/05/16 08:31:31;;;;;;;8.23;5.90;;;12.00;99.90;;;;;;5108910;28;20673;-70
2023/05/16 08:34:00;;;;;;;8.10;5.23;;;12.10;99.90;;;;;;5110121;28;20647;-69
2023/05/16 08:36:27;;;;;;;7.27;4.80;;;12.20;99.90;;;;;;5109753;28;20652;-69
2023/05/16 08:38:54;;;;;;;8.60;5.20;;;12.10;99.90;;;;;;5109920;28;20626;-70
2023/05/16 08:41:21;;;;;;;8.70;6.00;;;12.10;99.90;;;;;;5108983;28;20642;-70
2023/05/16 08:43:48;;;;;;;4.13;3.63;;;12.10;99.90;;;;;;5109751;28;20622;-70
2023/05/16 08:46:17;;;;;;;5.87;4.60;;;12.00;99.90;;;;;;5109240;28;20658;-70
2023/05/16 08:48:46;;;;;;;9.00;5.50;;;12.00;99.90;;;;;;5109057;28;20618;-69
2023/05/16 08:51:17;;;;;;;9.27;6.20;;;12.10;99.90;;;;;;5107559;28;21304;-70
2023/05/16 08:53:50;;;;;;;7.80;4.57;;;12.20;99.90;;;;;;5109772;28;20725;-70
2023/05/16 08:56:18;;;;;;;5.53;4.50;;;12.00;99.90;;;;;;5109832;28;20673;-70
2023/05/16 08:58:45;;;;;;;6.47;5.27;;;11.90;99.90;;;;;;5109050;28;20644;-70
2023/05/16 09:01:13;;;;;;;7.60;4.97;;;11.80;99.90;;;;;;5108683;28;20641;-69
2023/05/16 09:03:40;;;;;;;8.30;5.40;;;12.00;99.90;;;;;;5109535;28;21276;-70
2023/05/16 09:06:07;;;;;;;7.77;5.57;;;12.00;99.90;;;;;;5109136;28;20748;-68
2023/05/16 09:08:35;;;;;;;6.07;5.00;;;12.10;99.90;;;;;;5109067;28;20625;-70
2023/05/16 09:11:03;;;;;;;8.90;4.63;;;12.00;99.90;;;;;;5108312;28;20741;-70
2023/05/16 09:13:30;;;;;;;5.30;4.00;;;11.90;99.90;;;;;;5109315;28;20622;-70
2023/05/16 09:16:11;;;;;;;6.83;6.07;;;11.80;99.90;;;;;;5109263;28;20645;-71
2023/05/16 09:18:38;;;;;;;7.30;5.17;;;11.70;99.90;;;;;;5108785;28;20618;-70
2023/05/16 09:21:06;;;;;;;5.10;3.90;;;11.80;99.90;;;;;;5108664;28;20757;-68
2023/05/16 09:23:35;;;;;;;6.93;5.30;;;11.80;99.90;;;;;;5108216;28;20629;-68
2023/05/16 09:26:02;;;;;;;8.07;5.40;;;11.90;99.90;;;;;;5109186;28;20648;-68
2023/05/16 09:28:29;;;;;;;8.37;5.53;;;11.80;99.90;;;;;;5108601;28;20625;-68
2023/05/16 09:30:58;;;;;;;9.57;5.17;;;11.80;99.90;;;;;;5108036;27;20765;-68
2023/05/16 09:33:27;;;;;;;9.97;6.40;;;11.70;99.90;;;;;;5108747;28;20862;-68
2023/05/16 09:35:58;;;;;;;9.93;7.47;;;11.70;99.90;;;;;;5108794;28;20653;-68
2023/05/16 09:38:25;;;;;;;11.27;6.77;;;11.80;99.90;;;;;;5108446;28;20658;-69
2023/05/16 09:40:54;;;;;;;8.80;6.60;;;12.10;99.90;;;;;;5107971;28;21229;-68
2023/05/16 09:43:23;;;;;;;6.20;5.20;;;12.10;99.90;;;;;;5108422;28;20676;-68
2023/05/16 09:45:50;;;;;;;9.27;5.23;;;12.10;99.90;;;;;;5108492;28;20654;-70
2023/05/16 09:48:17;;;;;;;6.63;4.80;;;12.30;99.90;;;;;;5108820;28;21023;-70
2023/05/16 09:50:50;;;;;;;9.53;5.93;;;12.40;99.90;;;;;;5106509;28;20658;-70
2023/05/16 09:53:17;;;;;;;11.60;7.60;;;12.30;99.90;;;;;;5108379;28;20686;-70
2023/05/16 09:55:44;;;;;;;7.40;5.43;;;12.40;99.90;;;;;;5108331;28;20749;-68
2023/05/16 09:58:12;;;;;;;8.73;6.70;;;12.20;99.90;;;;;;5108394;28;20720;-68
2023/05/16 10:00:40;;;;;;;8.53;6.40;;;12.20;99.90;;;;;;5107838;28;20651;-68
2023/05/16 10:03:08;;;;;;;10.40;6.67;;;12.30;99.90;;;;;;5108303;28;20618;-68
2023/05/16 10:05:36;;;;;;;10.57;6.90;;;12.50;99.90;;;;;;5107956;28;20646;-68
2023/05/16 10:08:04;;;;;;;6.90;5.67;;;12.60;99.90;;;;;;5108484;28;20631;-68
2023/05/16 10:10:34;;;;;;;8.30;5.70;;;12.60;99.90;;;;;;5107415;28;20678;-68
2023/05/16 10:13:04;;;;;;;8.70;6.63;;;12.90;99.90;;;;;;5108419;28;20692;-68
2023/05/16 10:15:33;;;;;;;10.33;6.27;;;12.80;99.90;;;;;;5107964;28;20652;-68
2023/05/16 10:18:00;;;;;;;9.87;6.03;;;12.90;99.90;;;;;;5108086;28;20629;-69
2023/05/16 10:20:27;;;;;;;6.97;4.80;;;12.90;99.90;;;;;;5107214;28;20676;-69
2023/05/16 10:22:56;;;;;;;9.53;6.50;;;12.90;99.90;;;;;;5108364;28;20622;-69
2023/05/16 10:25:28;;;;;;;12.60;5.97;;;12.90;99.90;;;;;;5107841;28;20623;-69
2023/05/16 10:27:56;;;;;;;10.10;6.10;;;13.10;99.90;;;;;;5108439;28;20627;-69
2023/05/16 10:30:23;;;;;;;10.60;7.00;;;13.50;99.90;;;;;;5106888;28;20792;-69
2023/05/16 10:32:52;;;;;;;9.87;5.47;;;13.80;99.90;;;;;;5108021;28;20673;-71
2023/05/16 10:35:20;;;;;;;9.20;6.70;;;13.80;99.90;;;;;;5108277;28;20618;-69
2023/05/16 10:37:48;;;;;;;9.20;5.90;;;13.70;99.90;;;;;;5107911;28;20634;-70
2023/05/16 10:40:16;;;;;;;7.47;5.30;;;13.80;99.90;;;;;;5107159;28;20624;-69
2023/05/16 10:42:54;;;;;;;7.30;5.40;;;13.80;99.90;;;;;;5107706;28;20623;-69
2023/05/16 10:45:22;;;;;;;6.93;4.73;;;13.90;99.90;;;;;;5100481;28;20699;-69
2023/05/16 10:47:54;;;;;;;8.10;5.60;;;13.80;99.90;;;;;;5108058;28;20634;-69
2023/05/16 10:50:35;;;;;;;5.90;4.50;;;13.90;99.90;;;;;;5098081;28;20623;-69
2023/05/16 10:53:19;;;;;;;11.50;6.37;;;13.70;99.90;;;;;;5107679;28;20724;-69
2023/05/16 10:56:06;;;;;;;9.73;4.50;;;13.60;99.90;;;;;;5107883;28;20986;-70
2023/05/16 10:58:47;;;;;;;7.90;4.60;;;13.30;99.90;;;;;;5100277;28;20626;-71
2023/05/16 11:01:22;;;;;;;8.57;5.20;;;13.10;99.90;;;;;;5107164;28;20632;-69
2023/05/16 11:04:11;;;;;;;7.40;5.17;;;12.70;99.90;;;;;;5107386;28;20712;-69
2023/05/16 11:06:51;;;;;;;5.17;3.60;;;12.70;99.90;;;;;;5099807;28;20648;-69
2023/05/16 11:09:25;;;;;;;5.30;3.37;;;12.40;99.90;;;;;;5106921;28;20633;-69
2023/05/16 11:11:57;;;;;;;8.07;5.97;;;12.20;99.90;;;;;;5110488;28;20692;-69
2023/05/16 11:14:25;;;;;;;9.33;5.80;;;12.10;99.90;;;;;;5111538;28;20629;-69
2023/05/16 11:16:54;;;;;;;11.80;4.77;;;11.90;99.90;;;;;;5111519;28;20994;-70
2023/05/16 11:19:41;;;;;;;9.50;5.07;;;11.80;99.90;;;;;;5110927;28;20626;-69
2023/05/16 11:22:24;;;;;;;6.93;3.67;;;11.90;99.90;;;;;;5105182;28;20653;-69
2023/05/16 11:24:53;;;;;;;5.87;3.93;;;11.80;99.90;;;;;;5111351;28;20690;-69
2023/05/16 11:27:22;;;;;;;4.60;4.13;;;11.80;99.90;;;;;;5111179;28;20680;-69
2023/05/16 11:29:49;;;;;;;8.23;4.37;;;11.60;99.90;;;;;;5110585;28;20625;-69
2023/05/16 11:32:21;;;;;;;11.80;4.57;;;11.60;99.90;;;;;;5111023;28;20675;-69
2023/05/16 11:34:50;;;;;;;7.40;4.73;;;11.80;99.90;;;;;;5110867;28;21047;-69
2023/05/16 11:37:19;;;;;;;10.10;3.87;;;11.70;99.90;;;;;;5111123;28;20649;-69
2023/05/16 11:39:46;;;;;;;5.60;2.13;;;11.70;99.90;;;;;;5110433;28;20622;-69
2023/05/16 11:42:13;;;;;;;5.33;3.87;;;11.40;99.90;;;;;;5103456;28;20650;-69
2023/05/16 11:44:40;;;;;;;5.70;4.07;;;11.20;99.90;;;;;;5110834;28;20623;-69
2023/05/16 11:47:07;;;;;;;5.17;3.60;;;11.30;99.90;;;;;;5110463;27;20656;-68
2023/05/16 11:49:35;;;;;;;4.97;3.00;;;11.20;99.90;;;;;;5108905;28;20630;-68
2023/05/16 11:52:03;;;;;;;5.77;4.93;;;11.20;99.90;;;;;;5110523;28;20661;-69
2023/05/16 11:54:30;;;;;;;3.57;2.70;;;11.30;99.90;;;;;;5110696;28;20619;-69
2023/05/16 11:56:58;;;;;;;5.57;3.70;;;11.30;99.90;;;;;;5110406;28;20653;-69
2023/05/16 11:59:25;;;;;;;3.83;3.13;;;11.30;99.90;;;;;;5110028;28;20651;-69
2023/05/16 12:01:52;;;;;;;2.93;2.47;;;11.20;99.90;;;;;;5110242;28;20738;-68
2023/05/16 12:04:19;;;;;;;3.77;3.00;;;11.10;99.90;;;;;;5110895;28;20631;-69
2023/05/16 12:06:59;;;;;;;5.10;3.30;;;11.20;99.90;;;;;;5110517;27;20687;-68
2023/05/16 12:09:27;;;;;;;4.13;3.00;;;11.20;99.90;;;;;;5110062;28;21008;-70
2023/05/16 12:11:54;;;;;;;3.87;3.50;;;11.30;99.90;;;;;;5110019;28;20647;-69
2023/05/16 12:14:22;;;;;;;3.90;2.90;;;11.50;99.90;;;;;;5109936;28;20622;-68
2023/05/16 12:16:49;;;;;;;3.87;3.07;;;11.30;99.90;;;;;;5101897;28;20657;-68
2023/05/16 12:19:16;;;;;;;4.87;4.43;;;11.40;99.90;;;;;;5110244;28;20688;-68
2023/05/16 12:21:43;;;;;;;7.20;3.70;;;11.40;99.90;;;;;;5109171;28;20649;-69
2023/05/16 12:24:12;;;;;;;4.80;3.87;;;11.40;99.90;;;;;;5110038;28;20613;-69
2023/05/16 12:26:43;;;;;;;4.10;3.70;;;11.40;99.90;;;;;;5109928;28;20652;-68
2023/05/16 12:29:10;;;;;;;2.60;2.40;;;11.40;99.90;;;;;;5109473;28;20976;-68
2023/05/16 12:31:40;;;;;;;4.17;3.20;;;11.50;99.90;;;;;;5109169;28;20656;-68
2023/05/16 12:34:15;;;;;;;7.57;4.30;;;11.50;99.90;;;;;;5102065;28;20684;-68
2023/05/16 12:36:43;;;;;;;7.40;4.07;;;11.70;99.90;;;;;;5110076;28;20650;-68
2023/05/16 12:39:12;;;;;;;3.40;2.97;;;11.80;99.90;;;;;;5101438;28;20664;-68
2023/05/16 12:41:42;;;;;;;4.00;3.70;;;11.70;99.90;;;;;;5108496;28;20680;-68
2023/05/16 12:44:15;;;;;;;3.63;3.00;;;11.60;99.90;;;;;;5109744;28;20621;-68
2023/05/16 12:46:43;;;;;;;3.57;2.87;;;11.70;99.90;;;;;;5110066;28;20649;-69